createdAt,value
2019-02-17T03:31:59.820Z,1.00
2019-02-17T03:37:14.934Z,0.70
2019-02-17T03:42:27.191Z,0.70
2019-02-17T03:47:35.481Z,0.70
2019-02-17T03:52:56.128Z,0.70
2019-02-17T03:58:12.236Z,0.70
2019-02-17T04:03:20.950Z,0.50
2019-02-17T04:08:31.848Z,0.60
2019-02-17T04:13:37.569Z,0.60
2019-02-17T04:19:05.460Z,0.60
2019-02-17T04:24:12.812Z,0.50
2019-02-17T04:29:28.107Z,0.50
2019-02-17T04:34:38.598Z,0.40
2019-02-17T04:39:47.059Z,0.40
2019-02-17T04:44:54.636Z,0.40
2019-02-17T04:50:02.635Z,0.40
2019-02-17T04:55:07.937Z,0.40
2019-02-17T05:00:12.388Z,0.40
2019-02-17T05:05:16.886Z,0.40
2019-02-17T05:10:21.143Z,0.40
2019-02-17T05:15:25.618Z,0.30
2019-02-17T05:20:30.013Z,0.40
2019-02-17T05:25:34.515Z,0.50
2019-02-17T05:30:38.921Z,0.40
2019-02-17T05:35:43.319Z,0.50
2019-02-17T05:40:48.129Z,0.50
2019-02-17T05:45:54.359Z,0.50
2019-02-17T05:50:58.959Z,0.50
2019-02-17T05:56:03.984Z,0.50
2019-02-17T06:01:10.692Z,0.50
2019-02-17T06:06:18.388Z,0.50
2019-02-17T06:11:23.589Z,0.50
2019-02-17T06:16:32.143Z,0.40
2019-02-17T06:21:37.716Z,0.40
2019-02-17T06:26:42.368Z,0.50
2019-02-17T06:31:47.421Z,0.50
2019-02-17T06:36:52.175Z,0.60
2019-02-17T06:41:56.675Z,0.50
2019-02-17T06:47:05.042Z,0.60
2019-02-17T06:52:10.124Z,0.60
2019-02-17T06:57:24.657Z,0.60
2019-02-17T07:02:29.795Z,0.70
2019-02-17T07:07:37.625Z,0.70
2019-02-17T07:12:42.739Z,0.80
2019-02-17T07:17:47.643Z,0.90
2019-02-17T07:22:52.084Z,1.00
2019-02-17T07:27:57.119Z,1.10
2019-02-17T07:33:05.977Z,1.30
2019-02-17T07:38:12.393Z,1.50
2019-02-17T07:43:19.772Z,1.70
2019-02-17T07:48:29.681Z,2.00
2019-02-17T07:53:37.279Z,2.30
2019-02-17T07:58:51.006Z,2.60
2019-02-17T08:04:23.786Z,2.90
2019-02-17T08:09:40.491Z,3.20
2019-02-17T08:14:52.158Z,3.50
2019-02-17T08:20:07.701Z,3.80
2019-02-17T08:25:23.988Z,4.20
2019-02-17T08:30:42.901Z,4.50
2019-02-17T08:35:59.842Z,4.90
2019-02-17T08:46:57.273Z,5.60
2019-02-17T08:52:40.089Z,6.00
2019-02-17T11:04:57.312Z,15.50
2019-02-17T11:10:04.645Z,16.10
2019-02-17T12:31:23.067Z,20.20
2019-02-17T14:54:41.566Z,22.10
2019-02-17T20:11:42.535Z,5.40
2019-02-17T20:51:54.794Z,5.00
2019-02-17T21:03:19.173Z,4.90
2019-02-17T21:19:03.204Z,4.80
2019-02-17T21:30:25.224Z,4.70
